sensor_id;sensor_type;location;lat;lon;timestamp;P1;durP1;ratioP1;P2;durP2;ratioP2
9304;SDS011;4690;52.422;13.486;2023-08-31T00:13:36;3.67;;;3.38;;
9304;SDS011;4690;52.422;13.486;2023-08-31T00:16:03;4.10;;;3.78;;
9304;SDS011;4690;52.422;13.486;2023-08-31T00:18:30;3.85;;;3.58;;
9304;SDS011;4690;52.422;13.486;2023-08-31T00:20:55;3.92;;;3.60;;
9304;SDS011;4690;52.422;13.486;2023-08-31T00:23:21;3.58;;;3.38;;
9304;SDS011;4690;52.422;13.486;2023-08-31T00:25:48;3.50;;;3.25;;
9304;SDS011;4690;52.422;13.486;2023-08-31T00:28:14;3.60;;;3.40;;
9304;SDS011;4690;52.422;13.486;2023-08-31T00:30:43;4.55;;;3.70;;
9304;SDS011;4690;52.422;13.486;2023-08-31T00:33:09;3.80;;;3.50;;
9304;SDS011;4690;52.422;13.486;2023-08-31T00:35:38;4.97;;;3.67;;
9304;SDS011;4690;52.422;13.486;2023-08-31T00:38:08;4.13;;;3.83;;
9304;SDS011;4690;52.422;13.486;2023-08-31T00:40:38;3.70;;;3.40;;
9304;SDS011;4690;52.422;13.486;2023-08-31T00:43:09;4.40;;;4.00;;
9304;SDS011;4690;52.422;13.486;2023-08-31T00:45:35;4.30;;;4.00;;
9304;SDS011;4690;52.422;13.486;2023-08-31T00:48:04;4.30;;;4.00;;
9304;SDS011;4690;52.422;13.486;2023-08-31T00:50:30;4.43;;;3.95;;
9304;SDS011;4690;52.422;13.486;2023-08-31T00:52:56;3.85;;;3.55;;
9304;SDS011;4690;52.422;13.486;2023-08-31T00:55:22;3.97;;;3.63;;
9304;SDS011;4690;52.422;13.486;2023-08-31T00:57:49;5.35;;;3.80;;
9304;SDS011;4690;52.422;13.486;2023-08-31T01:00:15;4.60;;;4.25;;
9304;SDS011;4690;52.422;13.486;2023-08-31T01:08:21;4.50;;;4.10;;
9304;SDS011;4690;52.422;13.486;2023-08-31T01:14:31;4.45;;;4.05;;
9304;SDS011;4690;52.422;13.486;2023-08-31T01:17:04;4.50;;;4.10;;
9304;SDS011;4690;52.422;13.486;2023-08-31T01:19:40;4.45;;;4.15;;
9304;SDS011;4690;52.422;13.486;2023-08-31T01:25:09;4.20;;;3.90;;
9304;SDS011;4690;52.422;13.486;2023-08-31T01:27:36;4.65;;;4.18;;
9304;SDS011;4690;52.422;13.486;2023-08-31T01:30:04;4.38;;;3.97;;
9304;SDS011;4690;52.422;13.486;2023-08-31T01:32:31;4.05;;;3.65;;
9304;SDS011;4690;52.422;13.486;2023-08-31T01:34:58;3.45;;;3.20;;
9304;SDS011;4690;52.422;13.486;2023-08-31T01:37:31;4.70;;;3.30;;
9304;SDS011;4690;52.422;13.486;2023-08-31T01:40:08;3.83;;;3.53;;
9304;SDS011;4690;52.422;13.486;2023-08-31T01:42:42;3.15;;;2.85;;
9304;SDS011;4690;52.422;13.486;2023-08-31T01:45:11;3.28;;;3.08;;
9304;SDS011;4690;52.422;13.486;2023-08-31T01:47:45;3.47;;;3.17;;
9304;SDS011;4690;52.422;13.486;2023-08-31T01:50:11;3.25;;;3.05;;
9304;SDS011;4690;52.422;13.486;2023-08-31T01:52:37;3.15;;;2.95;;
9304;SDS011;4690;52.422;13.486;2023-08-31T01:55:04;3.47;;;3.10;;
9304;SDS011;4690;52.422;13.486;2023-08-31T01:57:31;3.22;;;2.90;;
9304;SDS011;4690;52.422;13.486;2023-08-31T01:59:58;3.22;;;2.92;;
9304;SDS011;4690;52.422;13.486;2023-08-31T02:02:25;3.55;;;3.25;;
9304;SDS011;4690;52.422;13.486;2023-08-31T02:04:51;3.20;;;2.90;;
9304;SDS011;4690;52.422;13.486;2023-08-31T02:07:17;3.15;;;2.95;;
9304;SDS011;4690;52.422;13.486;2023-08-31T02:09:43;4.20;;;3.30;;
9304;SDS011;4690;52.422;13.486;2023-08-31T02:12:09;3.45;;;3.22;;
9304;SDS011;4690;52.422;13.486;2023-08-31T02:14:35;3.35;;;3.15;;
9304;SDS011;4690;52.422;13.486;2023-08-31T02:17:01;3.92;;;3.60;;
9304;SDS011;4690;52.422;13.486;2023-08-31T02:19:27;3.80;;;3.33;;
9304;SDS011;4690;52.422;13.486;2023-08-31T02:21:53;3.20;;;3.00;;
9304;SDS011;4690;52.422;13.486;2023-08-31T02:24:19;3.55;;;3.28;;
9304;SDS011;4690;52.422;13.486;2023-08-31T02:26:45;5.15;;;3.40;;
9304;SDS011;4690;52.422;13.486;2023-08-31T02:29:11;3.70;;;3.40;;
9304;SDS011;4690;52.422;13.486;2023-08-31T02:31:36;3.13;;;2.90;;
9304;SDS011;4690;52.422;13.486;2023-08-31T02:34:06;3.20;;;2.90;;
9304;SDS011;4690;52.422;13.486;2023-08-31T02:36:32;2.88;;;2.47;;
9304;SDS011;4690;52.422;13.486;2023-08-31T02:38:58;3.28;;;3.00;;
9304;SDS011;4690;52.422;13.486;2023-08-31T02:41:24;3.95;;;2.70;;
9304;SDS011;4690;52.422;13.486;2023-08-31T02:43:50;2.90;;;2.70;;
9304;SDS011;4690;52.422;13.486;2023-08-31T02:46:19;2.80;;;2.60;;
9304;SDS011;4690;52.422;13.486;2023-08-31T02:48:45;2.72;;;2.53;;
9304;SDS011;4690;52.422;13.486;2023-08-31T02:51:12;2.50;;;2.30;;
9304;SDS011;4690;52.422;13.486;2023-08-31T02:53:38;2.47;;;2.30;;
9304;SDS011;4690;52.422;13.486;2023-08-31T02:56:04;2.65;;;2.45;;
9304;SDS011;4690;52.422;13.486;2023-08-31T02:58:29;2.90;;;2.55;;
9304;SDS011;4690;52.422;13.486;2023-08-31T03:01:05;2.85;;;2.65;;
9304;SDS011;4690;52.422;13.486;2023-08-31T03:03:39;2.67;;;2.50;;
9304;SDS011;4690;52.422;13.486;2023-08-31T03:06:07;2.97;;;2.78;;
9304;SDS011;4690;52.422;13.486;2023-08-31T03:08:35;2.88;;;2.60;;
9304;SDS011;4690;52.422;13.486;2023-08-31T03:11:02;2.85;;;2.65;;
9304;SDS011;4690;52.422;13.486;2023-08-31T03:13:30;2.88;;;2.67;;
9304;SDS011;4690;52.422;13.486;2023-08-31T03:15:57;2.70;;;2.50;;
9304;SDS011;4690;52.422;13.486;2023-08-31T03:18:24;2.90;;;2.70;;
9304;SDS011;4690;52.422;13.486;2023-08-31T03:20:50;2.60;;;2.40;;
9304;SDS011;4690;52.422;13.486;2023-08-31T03:23:16;2.92;;;2.70;;
9304;SDS011;4690;52.422;13.486;2023-08-31T03:25:42;2.80;;;2.60;;
9304;SDS011;4690;52.422;13.486;2023-08-31T03:28:08;2.78;;;2.58;;
9304;SDS011;4690;52.422;13.486;2023-08-31T03:30:35;2.90;;;2.70;;
9304;SDS011;4690;52.422;13.486;2023-08-31T03:33:00;2.95;;;2.75;;
9304;SDS011;4690;52.422;13.486;2023-08-31T03:35:27;2.80;;;2.60;;
9304;SDS011;4690;52.422;13.486;2023-08-31T03:37:54;2.78;;;2.58;;
9304;SDS011;4690;52.422;13.486;2023-08-31T03:40:21;3.17;;;2.55;;
9304;SDS011;4690;52.422;13.486;2023-08-31T03:42:48;3.00;;;2.78;;
9304;SDS011;4690;52.422;13.486;2023-08-31T03:45:14;3.05;;;2.80;;
9304;SDS011;4690;52.422;13.486;2023-08-31T03:47:40;3.13;;;2.92;;
9304;SDS011;4690;52.422;13.486;2023-08-31T03:50:06;2.80;;;2.60;;
9304;SDS011;4690;52.422;13.486;2023-08-31T03:52:33;4.18;;;2.75;;
9304;SDS011;4690;52.422;13.486;2023-08-31T03:54:59;2.97;;;2.75;;
9304;SDS011;4690;52.422;13.486;2023-08-31T03:57:25;3.40;;;3.20;;
9304;SDS011;4690;52.422;13.486;2023-08-31T03:59:51;3.33;;;3.10;;
9304;SDS011;4690;52.422;13.486;2023-08-31T04:02:17;3.13;;;2.85;;
9304;SDS011;4690;52.422;13.486;2023-08-31T04:04:43;4.18;;;3.00;;
9304;SDS011;4690;52.422;13.486;2023-08-31T04:07:08;3.65;;;3.35;;
9304;SDS011;4690;52.422;13.486;2023-08-31T04:09:34;3.30;;;3.10;;
9304;SDS011;4690;52.422;13.486;2023-08-31T04:12:00;3.40;;;3.20;;
9304;SDS011;4690;52.422;13.486;2023-08-31T04:14:26;4.15;;;3.42;;
9304;SDS011;4690;52.422;13.486;2023-08-31T04:16:53;3.40;;;3.17;;
9304;SDS011;4690;52.422;13.486;2023-08-31T04:19:21;3.72;;;3.42;;
9304;SDS011;4690;52.422;13.486;2023-08-31T04:21:47;4.00;;;3.70;;
9304;SDS011;4690;52.422;13.486;2023-08-31T04:24:13;5.80;;;3.40;;
9304;SDS011;4690;52.422;13.486;2023-08-31T04:26:39;3.63;;;3.35;;
9304;SDS011;4690;52.422;13.486;2023-08-31T04:29:05;3.60;;;3.30;;
9304;SDS011;4690;52.422;13.486;2023-08-31T04:31:31;4.82;;;3.67;;
9304;SDS011;4690;52.422;13.486;2023-08-31T04:33:57;4.60;;;3.70;;
9304;SDS011;4690;52.422;13.486;2023-08-31T04:36:23;3.75;;;3.45;;
9304;SDS011;4690;52.422;13.486;2023-08-31T04:38:51;4.00;;;3.30;;
9304;SDS011;4690;52.422;13.486;2023-08-31T04:41:17;3.72;;;3.42;;
9304;SDS011;4690;52.422;13.486;2023-08-31T04:43:43;4.20;;;3.85;;
9304;SDS011;4690;52.422;13.486;2023-08-31T04:46:12;4.53;;;4.00;;
9304;SDS011;4690;52.422;13.486;2023-08-31T04:48:38;4.15;;;3.83;;
9304;SDS011;4690;52.422;13.486;2023-08-31T04:51:04;4.00;;;3.70;;
9304;SDS011;4690;52.422;13.486;2023-08-31T04:53:30;4.07;;;3.70;;
9304;SDS011;4690;52.422;13.486;2023-08-31T04:55:57;4.30;;;3.90;;
9304;SDS011;4690;52.422;13.486;2023-08-31T04:58:23;3.80;;;3.50;;
9304;SDS011;4690;52.422;13.486;2023-08-31T05:00:51;5.28;;;4.10;;
9304;SDS011;4690;52.422;13.486;2023-08-31T05:03:16;4.47;;;4.07;;
9304;SDS011;4690;52.422;13.486;2023-08-31T05:05:42;4.78;;;4.38;;
9304;SDS011;4690;52.422;13.486;2023-08-31T05:08:09;5.07;;;4.10;;
9304;SDS011;4690;52.422;13.486;2023-08-31T05:10:34;4.75;;;4.13;;
9304;SDS011;4690;52.422;13.486;2023-08-31T05:13:00;6.05;;;4.60;;
9304;SDS011;4690;52.422;13.486;2023-08-31T05:15:26;4.53;;;4.13;;
9304;SDS011;4690;52.422;13.486;2023-08-31T05:17:52;4.90;;;4.50;;
9304;SDS011;4690;52.422;13.486;2023-08-31T05:20:19;5.88;;;4.82;;
9304;SDS011;4690;52.422;13.486;2023-08-31T05:22:47;4.80;;;4.40;;
9304;SDS011;4690;52.422;13.486;2023-08-31T05:25:13;5.55;;;4.85;;
9304;SDS011;4690;52.422;13.486;2023-08-31T05:27:39;5.32;;;4.93;;
9304;SDS011;4690;52.422;13.486;2023-08-31T05:30:05;5.32;;;4.82;;
9304;SDS011;4690;52.422;13.486;2023-08-31T05:32:31;5.63;;;5.03;;
9304;SDS011;4690;52.422;13.486;2023-08-31T05:34:57;5.15;;;4.55;;
9304;SDS011;4690;52.422;13.486;2023-08-31T05:37:24;4.90;;;4.50;;
9304;SDS011;4690;52.422;13.486;2023-08-31T05:39:50;6.10;;;5.32;;
9304;SDS011;4690;52.422;13.486;2023-08-31T05:42:16;5.68;;;5.22;;
9304;SDS011;4690;52.422;13.486;2023-08-31T05:44:43;5.78;;;5.28;;
9304;SDS011;4690;52.422;13.486;2023-08-31T05:47:09;5.00;;;4.60;;
9304;SDS011;4690;52.422;13.486;2023-08-31T05:49:35;6.05;;;5.55;;
9304;SDS011;4690;52.422;13.486;2023-08-31T05:52:01;6.05;;;5.45;;
9304;SDS011;4690;52.422;13.486;2023-08-31T05:54:26;5.82;;;5.43;;
9304;SDS011;4690;52.422;13.486;2023-08-31T05:56:52;5.85;;;5.35;;
9304;SDS011;4690;52.422;13.486;2023-08-31T05:59:18;6.22;;;5.70;;
9304;SDS011;4690;52.422;13.486;2023-08-31T06:01:44;5.82;;;5.20;;
9304;SDS011;4690;52.422;13.486;2023-08-31T06:04:10;5.40;;;4.97;;
9304;SDS011;4690;52.422;13.486;2023-08-31T06:06:36;6.10;;;5.60;;
9304;SDS011;4690;52.422;13.486;2023-08-31T06:09:01;7.55;;;6.05;;
9304;SDS011;4690;52.422;13.486;2023-08-31T06:11:27;7.50;;;5.57;;
9304;SDS011;4690;52.422;13.486;2023-08-31T06:13:53;7.65;;;5.90;;
9304;SDS011;4690;52.422;13.486;2023-08-31T06:16:19;6.70;;;6.10;;
9304;SDS011;4690;52.422;13.486;2023-08-31T06:18:45;6.85;;;5.78;;
9304;SDS011;4690;52.422;13.486;2023-08-31T06:21:10;6.20;;;5.50;;
9304;SDS011;4690;52.422;13.486;2023-08-31T06:23:36;6.10;;;5.50;;
9304;SDS011;4690;52.422;13.486;2023-08-31T06:26:02;6.43;;;5.82;;
9304;SDS011;4690;52.422;13.486;2023-08-31T06:28:28;6.18;;;5.65;;
9304;SDS011;4690;52.422;13.486;2023-08-31T06:30:54;6.88;;;6.28;;
9304;SDS011;4690;52.422;13.486;2023-08-31T06:33:20;6.70;;;6.00;;
9304;SDS011;4690;52.422;13.486;2023-08-31T06:35:46;6.30;;;5.70;;
9304;SDS011;4690;52.422;13.486;2023-08-31T06:38:17;6.03;;;5.43;;
9304;SDS011;4690;52.422;13.486;2023-08-31T06:40:43;8.18;;;6.25;;
9304;SDS011;4690;52.422;13.486;2023-08-31T06:43:09;6.63;;;5.93;;
9304;SDS011;4690;52.422;13.486;2023-08-31T06:45:35;6.45;;;5.85;;
9304;SDS011;4690;52.422;13.486;2023-08-31T06:48:01;7.55;;;5.93;;
9304;SDS011;4690;52.422;13.486;2023-08-31T06:50:28;7.07;;;6.38;;
9304;SDS011;4690;52.422;13.486;2023-08-31T06:52:53;7.53;;;6.43;;
9304;SDS011;4690;52.422;13.486;2023-08-31T06:55:19;6.63;;;6.03;;
9304;SDS011;4690;52.422;13.486;2023-08-31T06:57:45;6.43;;;5.88;;
9304;SDS011;4690;52.422;13.486;2023-08-31T07:00:11;6.43;;;5.80;;
9304;SDS011;4690;52.422;13.486;2023-08-31T07:02:40;8.98;;;6.50;;
9304;SDS011;4690;52.422;13.486;2023-08-31T07:05:07;6.90;;;6.20;;
9304;SDS011;4690;52.422;13.486;2023-08-31T07:07:33;6.93;;;6.28;;
9304;SDS011;4690;52.422;13.486;2023-08-31T07:09:59;7.28;;;6.57;;
9304;SDS011;4690;52.422;13.486;2023-08-31T07:12:25;6.68;;;6.05;;
9304;SDS011;4690;52.422;13.486;2023-08-31T07:14:51;8.20;;;6.47;;
9304;SDS011;4690;52.422;13.486;2023-08-31T07:17:20;7.13;;;6.43;;
9304;SDS011;4690;52.422;13.486;2023-08-31T07:19:46;7.30;;;6.60;;
9304;SDS011;4690;52.422;13.486;2023-08-31T07:22:11;7.38;;;6.68;;
9304;SDS011;4690;52.422;13.486;2023-08-31T07:24:37;6.82;;;6.13;;
9304;SDS011;4690;52.422;13.486;2023-08-31T07:27:03;7.63;;;6.93;;
9304;SDS011;4690;52.422;13.486;2023-08-31T07:29:30;7.28;;;6.57;;
9304;SDS011;4690;52.422;13.486;2023-08-31T07:31:56;7.70;;;6.90;;
9304;SDS011;4690;52.422;13.486;2023-08-31T07:34:23;8.82;;;6.80;;
9304;SDS011;4690;52.422;13.486;2023-08-31T07:36:49;8.50;;;7.20;;
9304;SDS011;4690;52.422;13.486;2023-08-31T07:39:15;7.85;;;6.90;;
9304;SDS011;4690;52.422;13.486;2023-08-31T07:41:44;7.88;;;6.10;;
9304;SDS011;4690;52.422;13.486;2023-08-31T07:44:09;6.95;;;6.28;;
9304;SDS011;4690;52.422;13.486;2023-08-31T07:46:35;7.32;;;6.63;;
9304;SDS011;4690;52.422;13.486;2023-08-31T07:49:01;9.32;;;6.82;;
9304;SDS011;4690;52.422;13.486;2023-08-31T07:51:28;7.00;;;6.30;;
9304;SDS011;4690;52.422;13.486;2023-08-31T07:53:53;7.07;;;6.25;;
9304;SDS011;4690;52.422;13.486;2023-08-31T07:56:19;6.47;;;5.78;;
9304;SDS011;4690;52.422;13.486;2023-08-31T07:58:45;7.72;;;6.53;;
9304;SDS011;4690;52.422;13.486;2023-08-31T08:01:11;9.45;;;6.30;;
9304;SDS011;4690;52.422;13.486;2023-08-31T08:03:36;6.50;;;5.90;;
9304;SDS011;4690;52.422;13.486;2023-08-31T08:06:02;8.63;;;6.15;;
9304;SDS011;4690;52.422;13.486;2023-08-31T08:08:28;10.85;;;7.13;;
9304;SDS011;4690;52.422;13.486;2023-08-31T08:10:54;7.28;;;6.45;;
9304;SDS011;4690;52.422;13.486;2023-08-31T08:13:20;7.07;;;6.38;;
9304;SDS011;4690;52.422;13.486;2023-08-31T08:15:46;9.98;;;6.03;;
9304;SDS011;4690;52.422;13.486;2023-08-31T08:18:12;6.93;;;6.15;;
9304;SDS011;4690;52.422;13.486;2023-08-31T08:20:38;6.32;;;5.78;;
9304;SDS011;4690;52.422;13.486;2023-08-31T08:23:07;8.27;;;6.03;;
9304;SDS011;4690;52.422;13.486;2023-08-31T08:25:33;9.20;;;5.60;;
9304;SDS011;4690;52.422;13.486;2023-08-31T08:27:59;7.78;;;5.22;;
9304;SDS011;4690;52.422;13.486;2023-08-31T08:30:25;6.32;;;4.90;;
9304;SDS011;4690;52.422;13.486;2023-08-31T08:32:51;6.78;;;4.45;;
9304;SDS011;4690;52.422;13.486;2023-08-31T08:35:17;4.75;;;3.78;;
9304;SDS011;4690;52.422;13.486;2023-08-31T08:37:42;6.35;;;4.03;;
9304;SDS011;4690;52.422;13.486;2023-08-31T08:40:09;7.88;;;3.85;;
9304;SDS011;4690;52.422;13.486;2023-08-31T08:42:38;4.32;;;3.55;;
9304;SDS011;4690;52.422;13.486;2023-08-31T08:45:07;5.50;;;4.07;;
9304;SDS011;4690;52.422;13.486;2023-08-31T08:47:40;5.78;;;3.78;;
9304;SDS011;4690;52.422;13.486;2023-08-31T08:50:09;4.63;;;3.00;;
9304;SDS011;4690;52.422;13.486;2023-08-31T08:52:38;5.55;;;2.72;;
9304;SDS011;4690;52.422;13.486;2023-08-31T08:55:06;4.45;;;2.47;;
9304;SDS011;4690;52.422;13.486;2023-08-31T08:57:34;4.10;;;2.70;;
9304;SDS011;4690;52.422;13.486;2023-08-31T09:00:00;4.90;;;2.55;;
9304;SDS011;4690;52.422;13.486;2023-08-31T09:02:26;4.13;;;2.42;;
9304;SDS011;4690;52.422;13.486;2023-08-31T09:04:52;6.07;;;3.20;;
9304;SDS011;4690;52.422;13.486;2023-08-31T09:07:22;4.75;;;2.70;;
9304;SDS011;4690;52.422;13.486;2023-08-31T09:09:49;5.15;;;2.45;;
9304;SDS011;4690;52.422;13.486;2023-08-31T09:12:17;6.10;;;2.95;;
9304;SDS011;4690;52.422;13.486;2023-08-31T09:14:43;4.65;;;2.92;;
9304;SDS011;4690;52.422;13.486;2023-08-31T09:17:23;4.75;;;2.60;;
9304;SDS011;4690;52.422;13.486;2023-08-31T09:19:59;4.32;;;2.40;;
9304;SDS011;4690;52.422;13.486;2023-08-31T09:22:25;6.00;;;2.95;;
9304;SDS011;4690;52.422;13.486;2023-08-31T09:24:52;3.97;;;2.55;;
9304;SDS011;4690;52.422;13.486;2023-08-31T09:27:19;2.92;;;2.30;;
9304;SDS011;4690;52.422;13.486;2023-08-31T09:29:47;8.80;;;2.70;;
9304;SDS011;4690;52.422;13.486;2023-08-31T09:32:17;4.72;;;2.30;;
9304;SDS011;4690;52.422;13.486;2023-08-31T09:34:43;7.15;;;2.45;;
9304;SDS011;4690;52.422;13.486;2023-08-31T09:37:10;4.10;;;2.40;;
9304;SDS011;4690;52.422;13.486;2023-08-31T09:39:36;3.67;;;2.42;;
9304;SDS011;4690;52.422;13.486;2023-08-31T09:42:04;5.05;;;2.30;;
9304;SDS011;4690;52.422;13.486;2023-08-31T09:44:30;4.32;;;2.28;;
9304;SDS011;4690;52.422;13.486;2023-08-31T09:46:56;3.03;;;2.10;;
9304;SDS011;4690;52.422;13.486;2023-08-31T09:49:22;4.78;;;2.40;;
9304;SDS011;4690;52.422;13.486;2023-08-31T09:51:50;5.75;;;2.70;;
9304;SDS011;4690;52.422;13.486;2023-08-31T09:54:18;4.47;;;2.60;;
9304;SDS011;4690;52.422;13.486;2023-08-31T09:56:47;3.97;;;2.22;;
9304;SDS011;4690;52.422;13.486;2023-08-31T09:59:14;5.95;;;2.05;;
9304;SDS011;4690;52.422;13.486;2023-08-31T10:01:42;4.60;;;2.28;;
9304;SDS011;4690;52.422;13.486;2023-08-31T10:04:11;6.38;;;2.25;;
9304;SDS011;4690;52.422;13.486;2023-08-31T10:06:38;3.53;;;1.90;;
9304;SDS011;4690;52.422;13.486;2023-08-31T10:09:06;4.93;;;1.95;;
9304;SDS011;4690;52.422;13.486;2023-08-31T10:11:34;5.32;;;2.22;;
9304;SDS011;4690;52.422;13.486;2023-08-31T10:14:03;3.65;;;1.90;;
9304;SDS011;4690;52.422;13.486;2023-08-31T10:16:29;2.25;;;1.83;;
9304;SDS011;4690;52.422;13.486;2023-08-31T10:18:56;2.40;;;1.95;;
9304;SDS011;4690;52.422;13.486;2023-08-31T10:21:22;3.15;;;2.00;;
9304;SDS011;4690;52.422;13.486;2023-08-31T10:23:48;2.03;;;1.70;;
9304;SDS011;4690;52.422;13.486;2023-08-31T10:26:29;3.35;;;1.98;;
9304;SDS011;4690;52.422;13.486;2023-08-31T10:28:56;5.50;;;1.98;;
9304;SDS011;4690;52.422;13.486;2023-08-31T10:31:27;4.28;;;1.98;;
9304;SDS011;4690;52.422;13.486;2023-08-31T10:34:01;3.45;;;1.73;;
9304;SDS011;4690;52.422;13.486;2023-08-31T10:36:46;3.15;;;1.80;;
9304;SDS011;4690;52.422;13.486;2023-08-31T10:39:18;2.63;;;1.70;;
9304;SDS011;4690;52.422;13.486;2023-08-31T10:41:57;2.72;;;1.90;;
9304;SDS011;4690;52.422;13.486;2023-08-31T10:44:26;3.58;;;1.85;;
9304;SDS011;4690;52.422;13.486;2023-08-31T10:46:56;3.05;;;1.90;;
9304;SDS011;4690;52.422;13.486;2023-08-31T10:49:28;4.20;;;1.90;;
9304;SDS011;4690;52.422;13.486;2023-08-31T10:51:54;3.65;;;2.20;;
9304;SDS011;4690;52.422;13.486;2023-08-31T10:54:26;6.13;;;2.40;;
9304;SDS011;4690;52.422;13.486;2023-08-31T11:02:31;4.22;;;2.10;;
9304;SDS011;4690;52.422;13.486;2023-08-31T11:05:16;3.42;;;1.77;;
9304;SDS011;4690;52.422;13.486;2023-08-31T11:07:44;2.22;;;2.00;;
9304;SDS011;4690;52.422;13.486;2023-08-31T11:12:52;2.20;;;2.00;;
9304;SDS011;4690;52.422;13.486;2023-08-31T11:15:20;1.88;;;1.77;;
9304;SDS011;4690;52.422;13.486;2023-08-31T11:17:49;6.93;;;2.50;;
9304;SDS011;4690;52.422;13.486;2023-08-31T11:20:17;2.38;;;2.17;;
9304;SDS011;4690;52.422;13.486;2023-08-31T11:22:46;2.10;;;1.90;;
9304;SDS011;4690;52.422;13.486;2023-08-31T11:25:15;2.40;;;1.90;;
9304;SDS011;4690;52.422;13.486;2023-08-31T11:27:52;2.22;;;2.03;;
9304;SDS011;4690;52.422;13.486;2023-08-31T11:30:24;2.42;;;2.17;;
9304;SDS011;4690;52.422;13.486;2023-08-31T11:32:56;2.60;;;2.40;;
9304;SDS011;4690;52.422;13.486;2023-08-31T11:35:30;3.22;;;2.90;;
9304;SDS011;4690;52.422;13.486;2023-08-31T11:38:01;2.35;;;2.10;;
9304;SDS011;4690;52.422;13.486;2023-08-31T11:40:31;2.83;;;2.15;;
9304;SDS011;4690;52.422;13.486;2023-08-31T11:42:57;3.17;;;2.88;;
9304;SDS011;4690;52.422;13.486;2023-08-31T11:45:28;3.22;;;2.78;;
9304;SDS011;4690;52.422;13.486;2023-08-31T11:47:55;4.05;;;2.90;;
9304;SDS011;4690;52.422;13.486;2023-08-31T11:50:22;5.03;;;3.05;;
9304;SDS011;4690;52.422;13.486;2023-08-31T11:52:50;6.82;;;3.30;;
9304;SDS011;4690;52.422;13.486;2023-08-31T11:55:18;3.38;;;3.08;;
9304;SDS011;4690;52.422;13.486;2023-08-31T11:57:50;3.28;;;2.90;;
9304;SDS011;4690;52.422;13.486;2023-08-31T12:00:19;2.75;;;2.38;;
9304;SDS011;4690;52.422;13.486;2023-08-31T12:02:58;2.30;;;2.10;;
9304;SDS011;4690;52.422;13.486;2023-08-31T12:05:29;5.95;;;2.10;;
9304;SDS011;4690;52.422;13.486;2023-08-31T12:08:23;2.30;;;2.10;;
9304;SDS011;4690;52.422;13.486;2023-08-31T12:10:51;3.13;;;2.30;;
9304;SDS011;4690;52.422;13.486;2023-08-31T12:13:17;2.30;;;2.10;;
9304;SDS011;4690;52.422;13.486;2023-08-31T12:15:43;2.95;;;2.50;;
9304;SDS011;4690;52.422;13.486;2023-08-31T12:18:09;2.92;;;2.40;;
9304;SDS011;4690;52.422;13.486;2023-08-31T12:20:45;3.15;;;2.70;;
9304;SDS011;4690;52.422;13.486;2023-08-31T12:23:13;2.67;;;2.47;;
9304;SDS011;4690;52.422;13.486;2023-08-31T12:26:00;3.65;;;2.70;;
9304;SDS011;4690;52.422;13.486;2023-08-31T12:28:27;3.78;;;2.90;;
9304;SDS011;4690;52.422;13.486;2023-08-31T12:30:53;3.60;;;2.70;;
9304;SDS011;4690;52.422;13.486;2023-08-31T12:33:21;3.60;;;2.90;;
9304;SDS011;4690;52.422;13.486;2023-08-31T12:35:48;3.08;;;2.58;;
9304;SDS011;4690;52.422;13.486;2023-08-31T12:38:14;4.75;;;2.65;;
9304;SDS011;4690;52.422;13.486;2023-08-31T12:40:40;4.10;;;2.85;;
9304;SDS011;4690;52.422;13.486;2023-08-31T12:43:06;2.72;;;2.40;;
9304;SDS011;4690;52.422;13.486;2023-08-31T12:45:32;3.05;;;2.45;;
9304;SDS011;4690;52.422;13.486;2023-08-31T12:48:01;2.60;;;2.40;;
9304;SDS011;4690;52.422;13.486;2023-08-31T12:50:28;3.58;;;2.80;;
9304;SDS011;4690;52.422;13.486;2023-08-31T12:52:55;3.65;;;2.25;;
9304;SDS011;4690;52.422;13.486;2023-08-31T12:55:20;2.78;;;2.30;;
9304;SDS011;4690;52.422;13.486;2023-08-31T12:57:46;3.05;;;2.47;;
9304;SDS011;4690;52.422;13.486;2023-08-31T13:00:12;3.75;;;2.05;;
9304;SDS011;4690;52.422;13.486;2023-08-31T13:02:40;2.45;;;2.20;;
9304;SDS011;4690;52.422;13.486;2023-08-31T13:05:07;2.10;;;1.90;;
9304;SDS011;4690;52.422;13.486;2023-08-31T13:07:35;2.53;;;2.33;;
9304;SDS011;4690;52.422;13.486;2023-08-31T13:10:02;2.63;;;2.20;;
9304;SDS011;4690;52.422;13.486;2023-08-31T13:12:30;2.78;;;2.08;;
9304;SDS011;4690;52.422;13.486;2023-08-31T13:14:57;3.03;;;2.20;;
9304;SDS011;4690;52.422;13.486;2023-08-31T13:17:27;4.57;;;2.10;;
9304;SDS011;4690;52.422;13.486;2023-08-31T13:19:54;2.10;;;1.90;;
9304;SDS011;4690;52.422;13.486;2023-08-31T13:22:22;2.20;;;1.95;;
9304;SDS011;4690;52.422;13.486;2023-08-31T13:24:49;1.80;;;1.70;;
9304;SDS011;4690;52.422;13.486;2023-08-31T13:27:15;1.85;;;1.70;;
9304;SDS011;4690;52.422;13.486;2023-08-31T13:29:42;2.38;;;1.75;;
9304;SDS011;4690;52.422;13.486;2023-08-31T13:32:08;1.63;;;1.52;;
9304;SDS011;4690;52.422;13.486;2023-08-31T13:34:34;3.05;;;1.60;;
9304;SDS011;4690;52.422;13.486;2023-08-31T13:37:04;1.70;;;1.60;;
9304;SDS011;4690;52.422;13.486;2023-08-31T13:39:30;2.03;;;1.85;;
9304;SDS011;4690;52.422;13.486;2023-08-31T13:42:05;2.97;;;1.98;;
9304;SDS011;4690;52.422;13.486;2023-08-31T13:44:31;1.77;;;1.63;;
9304;SDS011;4690;52.422;13.486;2023-08-31T13:46:58;2.35;;;1.67;;
9304;SDS011;4690;52.422;13.486;2023-08-31T13:49:24;3.50;;;1.70;;
9304;SDS011;4690;52.422;13.486;2023-08-31T13:51:50;2.03;;;1.90;;
9304;SDS011;4690;52.422;13.486;2023-08-31T13:54:16;1.77;;;1.67;;
9304;SDS011;4690;52.422;13.486;2023-08-31T13:56:41;2.50;;;1.67;;
9304;SDS011;4690;52.422;13.486;2023-08-31T13:59:08;1.90;;;1.60;;
9304;SDS011;4690;52.422;13.486;2023-08-31T14:01:34;1.70;;;1.60;;
9304;SDS011;4690;52.422;13.486;2023-08-31T14:04:01;2.13;;;2.03;;
9304;SDS011;4690;52.422;13.486;2023-08-31T14:06:28;2.40;;;1.67;;
9304;SDS011;4690;52.422;13.486;2023-08-31T14:08:55;3.22;;;2.10;;
9304;SDS011;4690;52.422;13.486;2023-08-31T14:11:20;7.40;;;2.70;;
9304;SDS011;4690;52.422;13.486;2023-08-31T14:13:46;2.92;;;2.20;;
9304;SDS011;4690;52.422;13.486;2023-08-31T14:16:12;4.88;;;2.50;;
9304;SDS011;4690;52.422;13.486;2023-08-31T14:18:38;3.97;;;2.55;;
9304;SDS011;4690;52.422;13.486;2023-08-31T14:21:03;3.20;;;2.50;;
9304;SDS011;4690;52.422;13.486;2023-08-31T14:23:30;3.30;;;2.70;;
9304;SDS011;4690;52.422;13.486;2023-08-31T14:26:02;3.70;;;3.08;;
9304;SDS011;4690;52.422;13.486;2023-08-31T14:28:29;4.15;;;2.70;;
9304;SDS011;4690;52.422;13.486;2023-08-31T14:30:54;2.97;;;2.50;;
9304;SDS011;4690;52.422;13.486;2023-08-31T14:33:20;3.53;;;2.70;;
9304;SDS011;4690;52.422;13.486;2023-08-31T14:35:49;4.72;;;2.72;;
9304;SDS011;4690;52.422;13.486;2023-08-31T14:38:20;2.58;;;2.38;;
9304;SDS011;4690;52.422;13.486;2023-08-31T14:40:47;4.45;;;2.40;;
9304;SDS011;4690;52.422;13.486;2023-08-31T14:43:12;2.22;;;1.80;;
9304;SDS011;4690;52.422;13.486;2023-08-31T14:45:38;2.42;;;2.10;;
9304;SDS011;4690;52.422;13.486;2023-08-31T14:48:04;2.00;;;1.90;;
9304;SDS011;4690;52.422;13.486;2023-08-31T14:50:30;2.35;;;2.15;;
9304;SDS011;4690;52.422;13.486;2023-08-31T14:52:56;2.67;;;1.98;;
9304;SDS011;4690;52.422;13.486;2023-08-31T14:55:21;3.40;;;2.10;;
9304;SDS011;4690;52.422;13.486;2023-08-31T14:57:47;1.60;;;1.50;;
9304;SDS011;4690;52.422;13.486;2023-08-31T15:00:13;2.15;;;1.65;;
9304;SDS011;4690;52.422;13.486;2023-08-31T15:02:39;1.77;;;1.67;;
9304;SDS011;4690;52.422;13.486;2023-08-31T15:05:05;1.70;;;1.60;;
9304;SDS011;4690;52.422;13.486;2023-08-31T15:07:31;4.05;;;1.73;;
9304;SDS011;4690;52.422;13.486;2023-08-31T15:09:57;2.08;;;1.80;;
9304;SDS011;4690;52.422;13.486;2023-08-31T15:12:22;1.98;;;1.75;;
9304;SDS011;4690;52.422;13.486;2023-08-31T15:14:48;2.58;;;2.05;;
9304;SDS011;4690;52.422;13.486;2023-08-31T15:17:14;2.30;;;1.90;;
9304;SDS011;4690;52.422;13.486;2023-08-31T15:19:40;2.22;;;2.00;;
9304;SDS011;4690;52.422;13.486;2023-08-31T15:22:05;2.72;;;1.70;;
9304;SDS011;4690;52.422;13.486;2023-08-31T15:24:31;2.05;;;1.90;;
9304;SDS011;4690;52.422;13.486;2023-08-31T15:26:57;2.00;;;1.90;;
9304;SDS011;4690;52.422;13.486;2023-08-31T15:29:24;2.10;;;1.90;;
9304;SDS011;4690;52.422;13.486;2023-08-31T15:31:50;2.10;;;1.85;;
9304;SDS011;4690;52.422;13.486;2023-08-31T15:34:15;2.22;;;1.98;;